Tui, Spain
Current Conditions -  °F | °C
As of 2:30 AM on Tuesday 21 Oct 2014 (Local Time) from LEVX Reporting Station
Clear Clear  
Wind Chill: 19°   Ceiling: Unl
Heat Index: 19°   Visibility: 6mi
Dew Point: 18°   Wind: 7mph
Humidity: 94%   Direction: 220°SW
Pressure: 30.21"   Gusts: NA
Location:  42.05°N, 8.64°W
Report Text: LEVX 210030Z 22006KT CAVOK 19/18 Q1023 NOSIG
Loading
Personal Weather Stations






























Interactive Weather Map
Tropical Storm Tracking
New forecast layout! Learn more

10-Day Weather Forecast

Advertisements
Track Severe Weather on mobile